Time;durP1;ratioP1;P1;durP2;ratioP2;P2;SDS_P1;SDS_P2;PMS_P1;PMS_P2;Temp;Humidity;BMP_temperature;BMP_pressure;BME280_temperature;BME280_humidity;BME280_pressure;Samples;Min_cycle;Max_cycle;Signal;HPM_P1;HPM_P2
2022/07/31 00:01:12;;;;;;;16.97;15.37;;;15.50;99.90;;;;;;4958107;29;20222;-86
2022/07/31 00:03:39;;;;;;;18.73;17.03;;;15.40;99.90;;;;;;4957376;29;20201;-87
2022/07/31 00:06:06;;;;;;;;;;;15.30;99.90;;;;;;4953580;28;20203;-88
2022/07/31 00:08:33;;;;;;;18.67;17.00;;;15.20;99.90;;;;;;4938702;29;20458;-88
2022/07/31 00:11:02;;;;;;;18.20;16.43;;;15.20;99.90;;;;;;4950094;29;20233;-87
2022/07/31 00:13:28;;;;;;;;;;;15.10;99.90;;;;;;4946983;29;20711;-88
2022/07/31 00:15:55;;;;;;;16.10;14.47;;;15.00;99.90;;;;;;4940170;29;20397;-88
2022/07/31 00:18:22;;;;;;;17.57;15.87;;;15.00;99.90;;;;;;4958158;28;20277;-88
2022/07/31 00:20:49;;;;;;;17.57;15.80;;;14.90;99.90;;;;;;4958004;28;20236;-87
2022/07/31 00:23:16;;;;;;;15.00;13.43;;;14.80;1.00;;;;;;4957724;29;20251;-87
2022/07/31 00:25:43;;;;;;;15.37;13.87;;;14.70;99.90;;;;;;4958351;28;20231;-87
2022/07/31 00:28:12;;;;;;;14.47;13.00;;;14.70;99.90;;;;;;4957397;29;20194;-88
2022/07/31 00:30:39;;;;;;;17.90;16.30;;;14.60;1.00;;;;;;4958048;28;20217;-88
2022/07/31 00:33:06;;;;;;;17.00;15.43;;;14.60;1.00;;;;;;4954880;28;20206;-88
2022/07/31 00:35:33;;;;;;;15.87;14.30;;;14.50;1.00;;;;;;4946918;29;20230;-87
2022/07/31 00:38:00;;;;;;;16.00;14.47;;;14.40;1.00;;;;;;4957106;28;20658;-88
2022/07/31 00:40:27;;;;;;;17.10;15.43;;;14.40;1.00;;;;;;4953512;28;20202;-88
2022/07/31 00:42:54;;;;;;;15.77;14.23;;;14.30;1.00;;;;;;4946671;29;20201;-88
2022/07/31 00:45:23;;;;;;;14.87;13.40;;;14.30;1.00;;;;;;4941993;28;20208;-88
2022/07/31 00:47:50;;;;;;;17.07;15.67;;;14.20;1.00;;;;;;4945266;29;20281;-88
2022/07/31 00:50:17;;;;;;;18.83;17.37;;;14.20;1.00;;;;;;4957281;28;20200;-87
2022/07/31 00:52:44;;;;;;;15.30;13.73;;;14.20;1.00;;;;;;4951416;28;20545;-88
2022/07/31 00:55:12;;;;;;;13.53;12.00;;;14.20;1.00;;;;;;4949797;29;20588;-88
2022/07/31 00:57:39;;;;;;;14.77;13.40;;;14.10;1.00;;;;;;4952815;28;20232;-88
2022/07/31 01:00:07;;;;;;;18.60;17.07;;;14.10;1.00;;;;;;4948246;29;20206;-88
2022/07/31 01:02:37;;;;;;;17.20;15.80;;;14.00;1.00;;;;;;4957260;29;20199;-89
2022/07/31 01:05:04;;;;;;;17.67;16.33;;;14.00;1.00;;;;;;4958334;28;20240;-88
2022/07/31 01:07:32;;;;;;;17.87;16.50;;;13.90;1.00;;;;;;4957744;29;20285;-88
2022/07/31 01:10:00;;;;;;;15.90;14.57;;;13.90;1.00;;;;;;4949723;29;20201;-88
2022/07/31 01:12:33;;;;;;;16.13;14.80;;;13.90;1.00;;;;;;4952902;29;20207;-88
2022/07/31 01:15:04;;;;;;;15.97;14.63;;;13.90;99.90;;;;;;4957414;28;20223;-88
2022/07/31 01:17:32;;;;;;;15.17;13.83;;;13.70;1.00;;;;;;4957398;29;20256;-88
2022/07/31 01:20:01;;;;;;;18.53;17.13;;;13.70;1.00;;;;;;4952664;29;20211;-89
2022/07/31 01:22:45;;;;;;;18.27;16.90;;;13.60;1.00;;;;;;4945142;29;20230;-88
2022/07/31 01:25:22;;;;;;;16.63;15.30;;;13.60;1.00;;;;;;4934277;29;20209;-88
2022/07/31 01:28:01;;;;;;;17.83;16.50;;;13.60;1.00;;;;;;4957631;29;20219;-87
2022/07/31 01:30:35;;;;;;;18.30;16.87;;;13.60;1.00;;;;;;4957507;28;20216;-88
2022/07/31 01:33:07;;;;;;;18.15;16.75;;;13.50;1.00;;;;;;4957533;29;20198;-89
2022/07/31 01:35:40;;;;;;;16.13;14.73;;;13.50;1.00;;;;;;4957768;28;20277;-89
2022/07/31 01:38:11;;;;;;;18.23;16.87;;;13.50;1.00;;;;;;4945336;29;20199;-88
2022/07/31 01:40:43;;;;;;;20.20;18.70;;;13.50;1.00;;;;;;4951607;29;20661;-87
2022/07/31 01:43:14;;;;;;;24.90;23.23;;;13.40;1.00;;;;;;4948955;29;20257;-88
2022/07/31 01:45:47;;;;;;;22.20;20.63;;;13.30;1.00;;;;;;4957403;28;20214;-89
2022/07/31 01:48:16;;;;;;;17.37;16.00;;;13.30;1.00;;;;;;4959197;29;20270;-88
2022/07/31 01:50:46;;;;;;;17.07;15.73;;;13.30;1.00;;;;;;4944565;29;20202;-89
2022/07/31 01:53:16;;;;;;;17.67;16.23;;;13.30;1.00;;;;;;4958685;29;20536;-88
2022/07/31 01:55:44;;;;;;;19.00;17.50;;;13.30;1.00;;;;;;4941906;29;20234;-89
2022/07/31 01:58:12;;;;;;;17.73;16.30;;;13.30;1.00;;;;;;4947283;29;20242;-88
2022/07/31 02:00:42;;;;;;;18.40;16.80;;;13.20;1.00;;;;;;4944952;28;20219;-89
2022/07/31 02:03:12;;;;;;;18.70;17.23;;;13.30;1.00;;;;;;4950066;28;20210;-89
2022/07/31 02:05:42;;;;;;;19.10;17.63;;;13.20;1.00;;;;;;4953733;29;20209;-89
2022/07/31 02:08:11;;;;;;;18.20;16.20;;;13.20;1.00;;;;;;4946197;29;20201;-89
2022/07/31 02:10:39;;;;;;;17.67;16.30;;;13.20;67.90;;;;;;4956524;29;20209;-89
2022/07/31 02:13:06;;;;;;;19.40;17.90;;;13.20;99.90;;;;;;4931868;29;20236;-89
2022/07/31 02:15:35;;;;;;;17.40;16.07;;;13.20;99.90;;;;;;4946853;29;20246;-89
2022/07/31 02:18:02;;;;;;;22.73;21.17;;;13.10;99.90;;;;;;4952960;28;20223;-89
2022/07/31 02:20:32;;;;;;;26.30;24.53;;;13.10;23.50;;;;;;4949532;29;20200;-88
2022/07/31 02:23:00;;;;;;;40.07;37.50;;;13.00;1.00;;;;;;4959237;29;20209;-89
2022/07/31 02:25:28;;;;;;;33.00;30.83;;;13.00;99.90;;;;;;4957615;29;20267;-88
2022/07/31 02:27:57;;;;;;;33.77;31.40;;;13.10;1.00;;;;;;4942036;29;20248;-90
2022/07/31 02:30:27;;;;;;;28.80;26.70;;;13.00;99.70;;;;;;4946833;29;20199;-89
2022/07/31 02:32:55;;;;;;;26.10;24.27;;;13.10;99.90;;;;;;4957039;29;20226;-89
2022/07/31 02:35:24;;;;;;;20.77;19.23;;;13.10;1.00;;;;;;4957325;29;20218;-90
2022/07/31 02:37:55;;;;;;;20.07;18.53;;;13.00;1.00;;;;;;4958010;28;20565;-90
2022/07/31 02:40:25;;;;;;;22.33;20.67;;;13.00;1.00;;;;;;4944960;28;20201;-89
2022/07/31 02:42:54;;;;;;;21.77;19.77;;;12.90;1.00;;;;;;4948597;29;20206;-89
2022/07/31 02:45:22;;;;;;;20.07;18.50;;;12.90;1.00;;;;;;4940952;29;20218;-89
2022/07/31 02:47:50;;;;;;;21.87;20.23;;;13.00;1.00;;;;;;4940574;29;20661;-88
2022/07/31 02:50:18;;;;;;;20.13;18.43;;;12.90;1.00;;;;;;4940349;29;20780;-89
2022/07/31 02:52:46;;;;;;;21.47;19.93;;;12.90;1.00;;;;;;4939183;29;20207;-89
2022/07/31 02:55:15;;;;;;;19.37;17.87;;;12.90;1.00;;;;;;4938482;29;20229;-90
2022/07/31 02:57:42;;;;;;;21.03;19.37;;;12.90;1.00;;;;;;4939036;29;20207;-91
2022/07/31 03:00:21;;;;;;;19.50;17.83;;;12.90;1.00;;;;;;4938203;29;20677;-89
2022/07/31 03:02:49;;;;;;;17.70;16.27;;;12.70;1.00;;;;;;4938904;29;20201;-89
2022/07/31 03:05:17;;;;;;;19.20;17.73;;;12.70;1.00;;;;;;4938675;29;20212;-90
2022/07/31 03:07:44;;;;;;;26.23;24.33;;;12.70;1.00;;;;;;4939425;29;20288;-89
2022/07/31 03:10:12;;;;;;;27.73;25.73;;;12.70;1.00;;;;;;4938929;29;20213;-90
2022/07/31 03:12:44;;;;;;;27.77;25.90;;;12.60;99.90;;;;;;4940042;29;20269;-90
2022/07/31 03:15:14;;;;;;;25.67;23.90;;;12.50;99.90;;;;;;4939827;29;20225;-89
2022/07/31 03:17:43;;;;;;;24.60;22.93;;;12.50;1.00;;;;;;4941878;29;20267;-90
2022/07/31 03:20:12;;;;;;;27.47;25.53;;;12.30;1.00;;;;;;4944104;29;20201;-89
2022/07/31 03:22:40;;;;;;;28.17;26.23;;;12.40;1.00;;;;;;4944224;29;20208;-89
2022/07/31 03:25:08;;;;;;;25.23;23.50;;;12.30;1.00;;;;;;4943301;29;20215;-90
2022/07/31 03:27:35;;;;;;;21.50;19.93;;;12.30;1.00;;;;;;4945228;29;20212;-90
2022/07/31 03:30:05;;;;;;;22.53;20.77;;;12.30;1.00;;;;;;4955477;29;20308;-90
2022/07/31 03:32:34;;;;;;;21.77;20.13;;;12.30;1.00;;;;;;4943459;29;20206;-89
2022/07/31 03:35:02;;;;;;;23.13;21.47;;;12.30;1.00;;;;;;4944943;29;20241;-88
2022/07/31 03:37:29;;;;;;;29.43;27.40;;;12.30;1.00;;;;;;4941809;29;20206;-89
2022/07/31 03:39:56;;;;;;;29.40;27.47;;;12.20;1.00;;;;;;4941904;29;20209;-89
2022/07/31 03:42:25;;;;;;;29.10;27.10;;;12.20;1.00;;;;;;4942578;29;20211;-90
2022/07/31 03:44:53;;;;;;;35.57;33.37;;;12.20;1.00;;;;;;4942922;29;20227;-90
2022/07/31 03:47:21;;;;;;;36.23;33.90;;;12.20;34.80;;;;;;4945192;29;20208;-90
2022/07/31 03:49:50;;;;;;;39.13;36.50;;;12.20;1.00;;;;;;4943681;29;20667;-90
2022/07/31 03:52:17;;;;;;;37.13;34.83;;;12.20;99.90;;;;;;4946198;29;20719;-91
2022/07/31 03:54:45;;;;;;;55.17;49.90;;;12.20;99.90;;;;;;4943125;29;20672;-90
2022/07/31 03:57:12;;;;;;;43.93;41.30;;;12.30;99.90;;;;;;4943532;29;20224;-91
2022/07/31 03:59:40;;;;;;;46.20;43.47;;;12.30;99.90;;;;;;4946279;29;20212;-91
2022/07/31 04:02:09;;;;;;;34.47;32.27;;;12.40;99.90;;;;;;4945679;29;20232;-93
2022/07/31 04:04:39;;;;;;;33.60;31.47;;;12.40;1.00;;;;;;4945022;29;20223;-91
2022/07/31 04:07:06;;;;;;;33.33;31.23;;;12.40;99.90;;;;;;4942871;29;20706;-91
2022/07/31 04:09:34;;;;;;;40.47;37.97;;;12.50;99.90;;;;;;4936107;29;20213;-90
2022/07/31 04:12:01;;;;;;;37.17;34.87;;;12.50;33.60;;;;;;4937912;29;20218;-91
2022/07/31 04:14:29;;;;;;;43.37;40.77;;;12.60;39.90;;;;;;4951156;29;20208;-91
2022/07/31 04:16:57;;;;;;;43.20;40.20;;;12.60;35.40;;;;;;4963214;29;20238;-91
2022/07/31 04:19:24;;;;;;;44.67;41.97;;;12.70;76.20;;;;;;4964820;28;20635;-92
2022/07/31 04:21:53;;;;;;;41.93;39.40;;;12.80;99.90;;;;;;4950157;29;20202;-91
2022/07/31 04:24:20;;;;;;;47.30;44.30;;;12.90;99.90;;;;;;4953079;28;20212;-91
2022/07/31 04:26:49;;;;;;;41.13;38.60;;;13.20;1.00;;;;;;4943801;29;20659;-92
2022/07/31 04:29:17;;;;;;;47.03;44.23;;;13.70;1.00;;;;;;4951936;29;20687;-90
2022/07/31 04:31:44;;;;;;;23.90;22.13;;;14.20;18.30;;;;;;4948057;28;20247;-91
2022/07/31 04:34:11;;;;;;;16.53;14.90;;;15.20;1.00;;;;;;4943195;29;20648;-92
2022/07/31 04:36:39;;;;;;;30.70;28.70;;;16.40;99.90;;;;;;4954512;29;20210;-91
2022/07/31 04:39:08;;;;;;;24.80;23.10;;;17.70;1.00;;;;;;4947001;29;20190;-91
2022/07/31 04:41:35;;;;;;;18.10;15.77;;;18.90;1.00;;;;;;4948282;28;20208;-91
2022/07/31 04:44:02;;;;;;;15.23;13.20;;;20.00;1.00;;;;;;4943928;29;20196;-91
2022/07/31 04:46:29;;;;;;;16.57;15.00;;;20.80;1.00;;;;;;4949148;29;20197;-90
2022/07/31 04:48:56;;;;;;;16.43;14.80;;;21.40;99.90;;;;;;4955528;29;20219;-91
2022/07/31 04:51:24;;;;;;;23.00;21.23;;;22.10;1.00;;;;;;4949610;29;20107;-90
2022/07/31 04:53:52;;;;;;;25.23;23.63;;;22.70;99.90;;;;;;4953098;29;20180;-91
2022/07/31 04:56:41;;;;;;;;;;;23.20;1.00;;;;;;4944581;29;20213;-90
2022/07/31 04:59:09;;;;;;;;;;;23.70;1.00;;;;;;4938167;29;20282;-90
2022/07/31 05:01:36;;;;;;;20.47;18.70;;;24.50;1.00;;;;;;4937649;29;20455;-90
2022/07/31 05:04:04;;;;;;;;;;;25.10;1.00;;;;;;4937618;29;20063;-90
2022/07/31 05:06:34;;;;;;;;;;;25.60;99.90;;;;;;4937760;29;20008;-90
2022/07/31 05:09:02;;;;;;;23.73;22.10;;;26.20;99.90;;;;;;4924414;29;20056;-91
2022/07/31 05:11:31;;;;;;;31.47;29.37;;;27.10;99.90;;;;;;4936947;29;20205;-90
2022/07/31 05:13:59;;;;;;;635.50;330.30;;;27.80;99.90;;;;;;4936828;29;20208;-90
2022/07/31 05:16:27;;;;;;;;;;;28.40;99.90;;;;;;4937313;29;19961;-90
2022/07/31 05:18:54;;;;;;;617.00;359.83;;;28.90;99.90;;;;;;4936873;29;20055;-89
2022/07/31 05:21:22;;;;;;;638.97;387.90;;;29.30;99.90;;;;;;4936510;29;20197;-92
2022/07/31 05:23:50;;;;;;;648.67;383.67;;;29.70;99.90;;;;;;4948570;29;20199;-88
2022/07/31 05:26:18;;;;;;;653.17;404.83;;;30.30;96.20;;;;;;4960327;28;20204;-88
2022/07/31 05:28:48;;;;;;;670.40;413.98;;;30.80;95.60;;;;;;4955934;29;20206;-88
2022/07/31 05:31:17;;;;;;;670.65;387.20;;;31.20;56.00;;;;;;4949629;29;20224;-88
2022/07/31 05:33:45;;;;;;;671.85;394.67;;;31.50;39.60;;;;;;4953147;29;20199;-88
2022/07/31 05:36:12;;;;;;;677.88;390.83;;;31.60;27.70;;;;;;4955865;29;20584;-87
2022/07/31 05:38:39;;;;;;;679.58;399.63;;;32.10;23.90;;;;;;4954416;28;20189;-87
2022/07/31 05:41:06;;;;;;;675.60;391.17;;;32.40;18.00;;;;;;4955813;29;20204;-89
2022/07/31 05:43:33;;;;;;;679.85;401.13;;;32.70;12.80;;;;;;4955192;28;20221;-88
2022/07/31 05:46:02;;;;;;;672.10;372.27;;;33.00;10.20;;;;;;4955331;29;20219;-90
2022/07/31 05:48:29;;;;;;;657.35;342.50;;;33.30;2.70;;;;;;4955555;29;20204;-89
2022/07/31 05:50:56;;;;;;;265.80;138.95;;;33.40;1.00;;;;;;4949288;29;20204;-88
2022/07/31 05:53:23;;;;;;;665.72;379.80;;;33.90;1.00;;;;;;4946402;29;20560;-89
2022/07/31 05:55:51;;;;;;;650.42;318.55;;;34.30;1.00;;;;;;4946313;28;20251;-89
2022/07/31 05:58:19;;;;;;;655.85;326.75;;;34.80;1.00;;;;;;4936287;29;20251;-88
2022/07/31 06:00:49;;;;;;;650.33;316.00;;;35.10;1.00;;;;;;4936254;29;20206;-89
2022/07/31 06:03:23;;;;;;;645.00;329.85;;;35.30;1.00;;;;;;4936727;29;20223;-89
2022/07/31 06:05:50;;;;;;;676.50;402.13;;;35.70;1.00;;;;;;4936248;29;20184;-89
2022/07/31 06:08:18;;;;;;;683.88;422.83;;;35.80;1.00;;;;;;4935997;29;20200;-88
2022/07/31 06:10:45;;;;;;;610.88;252.88;;;36.20;1.00;;;;;;4935579;29;20207;-89
2022/07/31 06:13:13;;;;;;;567.53;172.15;;;36.70;1.00;;;;;;4935392;29;20562;-89
2022/07/31 06:15:41;;;;;;;669.35;413.90;;;37.10;1.00;;;;;;4935767;29;21029;-89
2022/07/31 06:18:08;;;;;;;493.92;143.52;;;37.80;1.00;;;;;;4935403;29;20311;-90
2022/07/31 06:20:36;;;;;;;;;;;38.50;1.00;;;;;;4935390;29;20063;-89
2022/07/31 06:23:03;;;;;;;573.85;196.38;;;38.90;1.00;;;;;;4925667;29;20400;-89
2022/07/31 06:25:30;;;;;;;623.15;278.95;;;38.90;1.00;;;;;;4935397;29;20263;-89
2022/07/31 06:27:58;;;;;;;586.67;228.70;;;39.30;1.00;;;;;;4935064;29;20276;-90
2022/07/31 06:30:25;;;;;;;555.75;184.73;;;39.30;1.00;;;;;;4935454;29;20196;-88
2022/07/31 06:32:52;;;;;;;522.42;171.35;;;39.30;1.00;;;;;;4935715;29;20205;-89
2022/07/31 06:35:19;;;;;;;548.92;186.63;;;39.40;1.00;;;;;;4935549;29;20200;-89
2022/07/31 06:37:47;;;;;;;533.28;184.50;;;39.50;1.00;;;;;;4935234;29;20674;-89
2022/07/31 06:40:14;;;;;;;590.20;260.33;;;39.50;1.00;;;;;;4935525;29;20223;-88
2022/07/31 06:42:43;;;;;;;574.03;236.82;;;39.40;1.00;;;;;;4934957;29;20197;-88
2022/07/31 06:45:10;;;;;;;617.08;298.70;;;39.40;1.00;;;;;;4935307;29;20197;-87
2022/07/31 06:47:38;;;;;;;568.03;218.70;;;39.40;1.00;;;;;;4935095;29;20224;-88
2022/07/31 06:50:06;;;;;;;549.70;193.05;;;39.60;1.00;;;;;;4934675;29;20603;-88
2022/07/31 06:52:33;;;;;;;566.00;215.93;;;40.00;1.00;;;;;;4934709;29;20220;-89
2022/07/31 06:55:02;;;;;;;552.50;202.15;;;40.20;1.00;;;;;;4935185;29;20197;-88
2022/07/31 06:57:29;;;;;;;601.30;265.35;;;40.00;1.00;;;;;;4934846;29;20569;-88
2022/07/31 06:59:56;;;;;;;562.92;214.27;;;40.10;1.00;;;;;;4935078;29;20199;-87
2022/07/31 07:02:23;;;;;;;589.45;253.95;;;40.20;1.00;;;;;;4934865;29;20196;-88
2022/07/31 07:04:50;;;;;;;600.17;279.80;;;40.30;1.00;;;;;;4935102;29;20199;-88
2022/07/31 07:07:17;;;;;;;621.95;326.73;;;40.30;1.00;;;;;;4934944;29;20220;-88
2022/07/31 07:09:44;;;;;;;574.40;231.35;;;40.10;1.00;;;;;;4934891;29;20208;-88
2022/07/31 07:12:12;;;;;;;586.38;250.15;;;39.90;1.00;;;;;;4934635;29;20201;-87
2022/07/31 07:14:39;;;;;;;618.95;314.88;;;39.80;1.00;;;;;;4935212;29;20223;-89
2022/07/31 07:17:06;;;;;;;617.83;323.35;;;39.90;1.00;;;;;;4934422;29;20888;-88
2022/07/31 07:19:33;;;;;;;612.08;301.02;;;39.70;1.00;;;;;;4935419;29;20192;-87
2022/07/31 07:22:01;;;;;;;624.10;345.85;;;39.80;1.00;;;;;;4934689;29;20196;-89
2022/07/31 07:24:28;;;;;;;618.75;310.45;;;39.80;1.00;;;;;;4934942;29;20254;-88
2022/07/31 07:26:55;;;;;;;566.10;220.43;;;39.90;1.00;;;;;;4934835;29;20220;-87
2022/07/31 07:29:24;;;;;;;537.88;198.23;;;40.00;1.00;;;;;;4934354;29;20542;-88
2022/07/31 07:31:51;;;;;;;554.25;213.70;;;40.10;1.00;;;;;;4934364;29;20224;-88
2022/07/31 07:34:18;;;;;;;584.33;251.30;;;40.10;1.00;;;;;;4934929;29;20197;-88
2022/07/31 07:36:45;;;;;;;564.40;233.15;;;40.40;1.00;;;;;;4934955;29;20231;-87
2022/07/31 07:39:12;;;;;;;593.83;276.23;;;40.80;1.00;;;;;;4934339;29;20197;-87
2022/07/31 07:41:40;;;;;;;562.55;215.13;;;41.00;1.00;;;;;;4934413;29;20205;-87
2022/07/31 07:44:08;;;;;;;541.85;189.02;;;40.70;1.00;;;;;;4934202;29;20209;-87
2022/07/31 07:46:36;;;;;;;526.58;184.88;;;40.40;1.00;;;;;;4934550;29;20228;-86
2022/07/31 07:49:05;;;;;;;541.95;198.85;;;39.80;1.00;;;;;;4934283;29;20799;-85
2022/07/31 07:51:32;;;;;;;555.47;215.23;;;39.30;1.00;;;;;;4921372;29;20193;-86
2022/07/31 07:54:00;;;;;;;606.08;290.67;;;39.30;1.00;;;;;;4934572;29;20200;-86
2022/07/31 07:56:27;;;;;;;554.90;189.98;;;39.40;1.00;;;;;;4934240;29;20192;-86
2022/07/31 07:58:54;;;;;;;522.47;180.43;;;39.60;1.00;;;;;;4937589;29;20200;-87
2022/07/31 08:01:21;;;;;;;524.92;172.45;;;39.80;1.00;;;;;;4950021;28;20276;-86
2022/07/31 08:03:50;;;;;;;540.63;200.45;;;39.60;1.00;;;;;;4957101;28;20777;-86
2022/07/31 08:06:17;;;;;;;550.30;202.80;;;39.50;1.00;;;;;;4957228;28;20188;-86
2022/07/31 08:08:44;;;;;;;558.65;214.68;;;39.50;1.00;;;;;;4957027;29;20227;-86
2022/07/31 08:11:11;;;;;;;587.38;249.25;;;39.30;1.00;;;;;;4956269;29;20172;-86
2022/07/31 08:13:38;;;;;;;605.83;294.35;;;38.80;1.00;;;;;;4956450;28;20192;-86
2022/07/31 08:16:05;;;;;;;616.67;290.00;;;38.50;1.00;;;;;;4956290;28;20183;-86
2022/07/31 08:18:32;;;;;;;652.95;396.55;;;38.20;1.00;;;;;;4955875;28;20603;-86
2022/07/31 08:21:01;;;;;;;607.10;271.35;;;38.20;1.00;;;;;;4956074;28;20200;-86
2022/07/31 08:23:28;;;;;;;619.97;319.05;;;38.50;1.00;;;;;;4930032;29;20219;-87
2022/07/31 08:25:55;;;;;;;625.28;318.20;;;38.80;1.00;;;;;;4960609;28;20554;-85
2022/07/31 08:28:24;;;;;;;663.42;419.50;;;39.00;1.00;;;;;;4960500;28;20719;-86
2022/07/31 08:30:51;;;;;;;673.97;456.10;;;38.90;1.00;;;;;;4951323;29;20204;-86
2022/07/31 08:33:28;;;;;;;680.38;476.92;;;38.70;1.00;;;;;;4954591;28;20200;-87
2022/07/31 08:35:56;;;;;;;655.65;405.70;;;38.60;1.00;;;;;;4957180;28;20212;-88
2022/07/31 08:38:24;;;;;;;596.35;254.50;;;38.60;1.00;;;;;;4955846;29;20196;-89
2022/07/31 08:40:52;;;;;;;597.63;257.23;;;38.80;1.00;;;;;;4962297;29;20203;-89
2022/07/31 08:43:23;;;;;;;527.80;167.75;;;38.60;1.00;;;;;;4965939;29;20268;-90
2022/07/31 08:46:02;;;;;;;521.88;177.05;;;38.20;1.00;;;;;;4972176;29;20203;-90
2022/07/31 08:48:36;;;;;;;475.83;156.15;;;38.00;1.00;;;;;;4978429;28;20219;-94
2022/07/31 08:51:25;;;;;;;477.33;153.70;;;37.90;1.00;;;;;;4978837;28;20202;-90
2022/07/31 08:53:59;;;;;;;500.67;151.27;;;37.50;1.00;;;;;;4957477;29;20275;-87
2022/07/31 08:56:29;;;;;;;481.67;152.05;;;37.50;1.00;;;;;;4964658;28;20208;-93
2022/07/31 08:58:56;;;;;;;37.13;34.92;;;37.40;1.00;;;;;;4956613;29;20204;-87
2022/07/31 09:01:24;;;;;;;33.50;31.50;;;37.10;1.00;;;;;;4964453;28;20228;-91
2022/07/31 09:03:57;;;;;;;34.90;32.85;;;37.30;1.00;;;;;;4979548;28;20196;-91
2022/07/31 09:06:24;;;;;;;34.53;32.45;;;37.30;1.00;;;;;;4957149;28;20196;-87
2022/07/31 09:09:12;;;;;;;34.30;32.33;;;37.40;1.00;;;;;;4958880;28;20227;-91
2022/07/31 09:11:48;;;;;;;31.08;29.23;;;37.60;1.00;;;;;;4961794;28;20681;-91
2022/07/31 09:14:25;;;;;;;37.03;34.90;;;38.10;1.00;;;;;;4929519;29;20197;-90
2022/07/31 09:16:53;;;;;;;33.55;31.52;;;38.50;1.00;;;;;;4951983;29;20168;-90
2022/07/31 09:19:21;;;;;;;31.55;29.60;;;38.90;1.00;;;;;;4955238;28;20263;-90
2022/07/31 09:21:48;;;;;;;31.30;29.48;;;38.80;1.00;;;;;;4955534;29;20227;-90
2022/07/31 09:24:29;;;;;;;34.08;32.08;;;38.90;1.00;;;;;;4955132;29;20204;-91
2022/07/31 09:27:03;;;;;;;32.67;30.75;;;38.70;1.00;;;;;;4955386;28;20192;-90
2022/07/31 09:29:35;;;;;;;33.75;31.77;;;38.40;1.00;;;;;;4967252;28;20206;-90
2022/07/31 09:32:09;;;;;;;;;;;38.50;1.00;;;;;;4942960;29;20106;-89
2022/07/31 09:34:36;;;;;;;32.67;30.73;;;38.60;1.00;;;;;;4955908;29;20220;-89
2022/07/31 09:37:11;;;;;;;25.63;24.08;;;38.40;1.00;;;;;;4955037;28;20586;-88
2022/07/31 09:39:40;;;;;;;27.08;25.38;;;38.00;1.00;;;;;;4943152;29;20609;-89
2022/07/31 09:42:08;;;;;;;18.23;17.08;;;37.60;1.00;;;;;;4953215;29;20184;-89
2022/07/31 09:44:36;;;;;;;;;;;36.90;1.00;;;;;;4944607;28;20062;-89
2022/07/31 09:47:03;;;;;;;15.82;14.82;;;36.10;1.00;;;;;;4951670;29;20222;-89
2022/07/31 09:49:30;;;;;;;;;;;35.30;1.00;;;;;;4956382;28;20051;-88
2022/07/31 09:51:58;;;;;;;15.32;14.32;;;35.00;1.00;;;;;;4954032;29;20016;-89
2022/07/31 09:54:26;;;;;;;13.10;12.27;;;34.80;1.00;;;;;;4954907;28;20235;-89
2022/07/31 09:56:55;;;;;;;15.23;14.23;;;34.60;1.00;;;;;;4937360;29;20275;-94
2022/07/31 09:59:22;;;;;;;13.00;12.20;;;34.30;1.00;;;;;;4937579;29;20212;-91
2022/07/31 10:01:49;;;;;;;;;;;34.00;1.00;;;;;;4940778;29;20047;-89
2022/07/31 10:04:18;;;;;;;17.27;16.17;;;33.60;1.00;;;;;;4933294;29;20040;-90
2022/07/31 10:06:48;;;;;;;21.00;19.63;;;33.20;1.00;;;;;;4937300;29;20211;-90
2022/07/31 10:09:18;;;;;;;24.77;23.23;;;32.90;1.00;;;;;;4922942;29;20209;-91
2022/07/31 10:11:46;;;;;;;19.65;18.45;;;32.70;1.00;;;;;;4930591;29;20204;-90
2022/07/31 10:14:39;;;;;;;18.40;17.10;;;32.80;1.00;;;;;;4940915;29;20205;-90
2022/07/31 10:17:24;;;;;;;16.30;15.23;;;32.80;1.00;;;;;;4953364;29;20200;-93
2022/07/31 10:19:58;;;;;;;11.88;11.02;;;32.70;1.00;;;;;;4948541;29;20224;-91
2022/07/31 10:22:27;;;;;;;12.48;11.57;;;32.10;1.00;;;;;;4944356;28;20189;-88
2022/07/31 10:24:59;;;;;;;16.10;15.02;;;31.80;1.00;;;;;;4953257;28;20196;-88
2022/07/31 10:30:09;;;;;;;22.92;21.52;;;31.70;1.00;;;;;;4948553;28;20197;-88
2022/07/31 10:32:37;;;;;;;26.07;24.47;;;31.40;1.00;;;;;;4956579;28;20193;-87
2022/07/31 10:35:46;;;;;;;26.60;25.00;;;31.30;1.00;;;;;;4961842;29;20189;-93
2022/07/31 10:38:27;;;;;;;24.37;22.83;;;31.20;1.00;;;;;;4870305;29;20194;-89
2022/07/31 10:41:02;;;;;;;25.60;24.00;;;31.10;1.00;;;;;;4899829;28;20276;-89
2022/07/31 10:43:36;;;;;;;25.47;23.93;;;31.10;1.00;;;;;;4961307;28;20201;-88
2022/07/31 10:46:05;;;;;;;25.63;24.07;;;31.10;1.00;;;;;;4944549;29;20212;-89
2022/07/31 10:49:05;;;;;;;24.90;23.37;;;31.20;1.00;;;;;;4947032;29;20195;-89
2022/07/31 10:51:32;;;;;;;24.27;22.77;;;31.40;1.00;;;;;;4953512;28;20622;-89
2022/07/31 10:54:01;;;;;;;23.77;22.30;;;31.30;1.00;;;;;;4953883;28;20200;-88
2022/07/31 10:56:39;;;;;;;23.00;21.60;;;31.30;1.00;;;;;;4941231;28;20212;-88
2022/07/31 10:59:06;;;;;;;22.80;21.40;;;31.10;1.00;;;;;;4939810;29;20203;-87
2022/07/31 11:01:45;;;;;;;24.73;23.23;;;31.10;1.00;;;;;;4941402;29;20216;-88
2022/07/31 11:04:12;;;;;;;21.97;20.57;;;31.10;1.00;;;;;;4953529;29;20200;-89
2022/07/31 11:06:43;;;;;;;23.97;22.47;;;31.10;1.00;;;;;;4955180;28;20204;-88
2022/07/31 11:09:21;;;;;;;22.13;20.73;;;31.00;1.00;;;;;;4928101;29;20222;-90
2022/07/31 11:11:48;;;;;;;23.77;22.27;;;30.80;1.00;;;;;;4953771;29;20200;-88
2022/07/31 11:14:16;;;;;;;23.87;22.40;;;30.90;1.00;;;;;;4953836;29;20200;-88
2022/07/31 11:16:51;;;;;;;22.50;21.10;;;31.00;1.00;;;;;;4948223;28;20204;-88
2022/07/31 11:19:18;;;;;;;22.30;20.90;;;31.10;1.00;;;;;;4940997;29;20235;-89
2022/07/31 11:21:46;;;;;;;22.17;20.77;;;31.10;1.00;;;;;;4934290;29;20600;-88
2022/07/31 11:24:15;;;;;;;23.57;22.10;;;31.00;1.00;;;;;;4934478;29;20204;-88
2022/07/31 11:26:52;;;;;;;23.57;22.07;;;30.90;1.00;;;;;;4930323;29;20202;-88
2022/07/31 11:29:27;;;;;;;24.10;22.60;;;30.70;1.00;;;;;;4928320;29;20276;-88
2022/07/31 11:31:59;;;;;;;19.03;17.80;;;30.40;1.00;;;;;;4934082;29;20208;-88
2022/07/31 11:34:26;;;;;;;22.50;20.93;;;30.20;1.00;;;;;;4934144;29;20309;-88
2022/07/31 11:36:53;;;;;;;22.90;21.50;;;30.00;1.00;;;;;;4936586;29;20193;-88
2022/07/31 11:39:22;;;;;;;21.90;20.50;;;29.90;1.00;;;;;;4933664;29;20198;-87
2022/07/31 11:41:50;;;;;;;23.97;22.47;;;29.90;1.00;;;;;;4935346;29;20197;-88
2022/07/31 11:44:20;;;;;;;25.70;23.97;;;29.90;1.00;;;;;;4935450;29;20674;-88
2022/07/31 11:46:50;;;;;;;25.23;23.47;;;30.00;1.00;;;;;;4935052;29;20189;-88
2022/07/31 11:49:22;;;;;;;26.00;24.40;;;29.90;1.00;;;;;;4936239;29;20223;-88
2022/07/31 11:51:50;;;;;;;26.67;25.07;;;29.80;1.00;;;;;;4936062;29;20284;-87
2022/07/31 11:54:23;;;;;;;26.03;24.43;;;29.80;1.00;;;;;;4936128;29;20253;-88
2022/07/31 11:56:53;;;;;;;26.47;24.83;;;29.80;1.00;;;;;;4935053;29;20189;-88
2022/07/31 11:59:29;;;;;;;24.90;23.30;;;29.80;1.00;;;;;;4918082;29;20221;-88
2022/07/31 12:02:04;;;;;;;23.40;21.90;;;29.80;1.00;;;;;;4918556;29;20201;-87
2022/07/31 12:04:35;;;;;;;21.87;20.37;;;29.80;1.00;;;;;;4926444;29;20220;-87
2022/07/31 12:07:02;;;;;;;26.70;24.70;;;29.60;1.00;;;;;;4936697;29;20280;-88
2022/07/31 12:09:30;;;;;;;21.63;20.23;;;29.70;1.00;;;;;;4938954;29;20221;-89
2022/07/31 12:11:58;;;;;;;22.60;21.10;;;29.70;1.00;;;;;;4935886;29;20200;-86
2022/07/31 12:14:32;;;;;;;20.63;19.33;;;29.70;1.00;;;;;;4946125;29;20196;-89
2022/07/31 12:16:59;;;;;;;23.03;21.57;;;29.80;1.00;;;;;;4945546;29;20188;-86
2022/07/31 12:19:27;;;;;;;23.30;21.83;;;29.80;1.00;;;;;;4959574;28;20588;-90
2022/07/31 12:22:01;;;;;;;22.93;21.43;;;29.90;1.00;;;;;;4961529;29;20224;-92
2022/07/31 12:24:28;;;;;;;22.77;21.23;;;29.80;1.00;;;;;;4959927;29;20224;-87
2022/07/31 12:27:04;;;;;;;22.53;21.13;;;29.70;1.00;;;;;;4960979;28;20673;-85
2022/07/31 12:29:33;;;;;;;22.37;20.97;;;29.60;1.00;;;;;;4963114;29;20839;-87
2022/07/31 12:32:03;;;;;;;25.27;23.23;;;29.60;1.00;;;;;;4957484;29;20251;-91
2022/07/31 12:34:32;;;;;;;25.30;23.60;;;29.60;1.00;;;;;;4951961;29;20669;-87
2022/07/31 12:37:01;;;;;;;22.17;20.77;;;29.50;1.00;;;;;;4944824;29;20247;-88
2022/07/31 12:39:31;;;;;;;20.37;19.07;;;29.40;1.00;;;;;;4949980;29;20200;-90
2022/07/31 12:42:09;;;;;;;23.23;21.80;;;29.30;1.00;;;;;;4965624;29;20203;-90
2022/07/31 12:44:36;;;;;;;20.83;19.53;;;29.40;1.00;;;;;;4960953;28;20228;-88
2022/07/31 12:47:03;;;;;;;22.60;21.20;;;29.40;1.00;;;;;;4960280;28;20209;-88